Time;durP1;ratioP1;P1;durP2;ratioP2;P2;SDS_P1;SDS_P2;PMS_P1;PMS_P2;Temp;Humidity;BMP_temperature;BMP_pressure;BME280_temperature;BME280_humidity;BME280_pressure;Samples;Min_cycle;Max_cycle;Signal;HPM_P1;HPM_P2
2023/10/19 00:02:08;;;;;;;2.05;0.98;;;;;;;11.91;59.85;99271.81;5364249;26;20038;-96
2023/10/19 00:04:49;;;;;;;1.67;1.58;;;;;;;11.87;59.84;99265.06;5363928;26;20063;-95
2023/10/19 00:07:15;;;;;;;1.30;1.15;;;;;;;11.95;59.84;99256.88;5334516;26;20052;-94
2023/10/19 00:09:45;;;;;;;1.17;0.60;;;;;;;11.99;59.85;99245.38;5332727;26;20056;-95
2023/10/19 00:12:10;;;;;;;0.60;0.60;;;;;;;11.95;59.84;99249.91;5336641;26;20033;-94
2023/10/19 00:14:36;;;;;;;4.05;1.10;;;;;;;12.00;59.85;99241.84;5331176;26;20404;-96
2023/10/19 00:17:05;;;;;;;6.05;1.12;;;;;;;12.05;59.85;99241.63;5331770;26;20074;-95
2023/10/19 00:19:39;;;;;;;0.70;0.70;;;;;;;12.07;59.85;99242.44;5331973;26;20064;-95
2023/10/19 00:22:08;;;;;;;0.93;0.93;;;;;;;12.01;59.85;99230.50;5334828;26;20105;-95
2023/10/19 00:24:35;;;;;;;1.25;1.17;;;;;;;12.10;59.85;99232.69;5331510;26;20027;-94
2023/10/19 00:27:10;;;;;;;2.25;2.05;;;;;;;12.01;59.85;99227.88;5330478;26;20074;-94
2023/10/19 00:29:40;;;;;;;0.52;0.52;;;;;;;12.09;59.85;99224.94;5331693;26;20072;-94
2023/10/19 00:32:06;;;;;;;1.87;0.95;;;;;;;12.08;59.85;99223.25;5349485;26;20064;-94
2023/10/19 00:34:33;;;;;;;2.53;1.15;;;;;;;11.93;59.84;99222.19;5330511;26;20119;-93
2023/10/19 00:37:07;;;;;;;1.40;1.30;;;;;;;11.96;59.84;99220.28;5330769;26;20064;-94
2023/10/19 00:39:48;;;;;;;1.23;0.73;;;;;;;11.96;59.84;99217.69;5331674;26;20420;-94
2023/10/19 00:42:15;;;;;;;0.85;0.52;;;;;;;11.98;59.85;99215.84;5332670;26;20069;-93
2023/10/19 00:44:49;;;;;;;2.95;1.87;;;;;;;12.03;59.85;99220.00;5330239;26;20087;-95
2023/10/19 00:47:18;;;;;;;4.05;3.30;;;;;;;12.12;59.85;99212.59;5331549;26;20060;-94
2023/10/19 00:49:47;;;;;;;0.35;0.25;;;;;;;12.13;59.86;99201.25;5330768;26;20061;-94
2023/10/19 00:52:19;;;;;;;0.43;0.43;;;;;;;11.92;59.85;99200.47;5312111;26;20076;-94
2023/10/19 00:57:13;;;;;;;0.52;0.52;;;;;;;11.92;59.85;99195.25;5349420;26;20052;-93
2023/10/19 00:59:48;;;;;;;3.78;2.05;;;;;;;11.93;59.84;99189.12;5329987;26;20129;-94
2023/10/19 01:02:17;;;;;;;5.43;1.48;;;;;;;12.11;59.85;99197.88;5315398;26;20957;-95
2023/10/19 01:04:56;;;;;;;1.35;1.25;;;;;;;11.95;59.84;99189.06;5330714;26;20025;-94
2023/10/19 01:07:29;;;;;;;0.37;0.37;;;;;;;11.97;59.86;99190.69;5314244;26;20415;-94
2023/10/19 01:09:59;;;;;;;0.88;0.88;;;;;;;11.99;59.85;99188.84;5312565;26;20701;-94
2023/10/19 01:15:13;;;;;;;9.63;1.52;;;;;;;11.98;59.86;99186.31;5355168;26;19995;-94
2023/10/19 01:17:40;;;;;;;2.45;1.80;;;;;;;11.92;59.85;99186.59;5314016;26;20056;-94
2023/10/19 01:25:41;;;;;;;3.40;2.15;;;;;;;12.03;59.85;99183.47;5350564;26;20409;-94
2023/10/19 01:28:07;;;;;;;1.40;0.98;;;;;;;11.89;59.84;99171.94;5349555;26;20350;-93
2023/10/19 01:30:33;;;;;;;0.20;0.20;;;;;;;11.83;59.84;99164.41;5314976;26;20059;-94
2023/10/19 01:32:59;;;;;;;0.60;0.60;;;;;;;11.92;59.85;99160.53;5316238;26;20079;-94
2023/10/19 01:35:24;;;;;;;0.20;0.20;;;;;;;11.91;59.85;99151.84;5334048;26;20056;-94
2023/10/19 01:37:50;;;;;;;1.42;1.10;;;;;;;11.77;59.84;99151.59;5331016;26;20103;-93
2023/10/19 01:40:20;;;;;;;1.27;1.05;;;;;;;11.82;59.83;99146.19;5330942;26;20083;-93
2023/10/19 01:42:45;;;;;;;0.45;0.45;;;;;;;11.64;59.83;99147.87;5349202;26;20770;-93
2023/10/19 01:45:11;;;;;;;0.10;0.10;;;;;;;11.52;59.82;99140.59;5330670;26;20089;-94
2023/10/19 01:47:37;;;;;;;2.17;0.65;;;;;;;11.57;59.82;99138.63;5331171;26;20048;-93
2023/10/19 01:50:05;;;;;;;0.88;0.88;;;;;;;11.47;59.82;99137.38;5331204;26;20060;-94
2023/10/19 01:52:30;;;;;;;1.25;0.85;;;;;;;11.52;59.82;99138.00;5331626;26;20060;-93
2023/10/19 01:55:07;;;;;;;0.25;0.20;;;;;;;11.52;59.83;99136.25;5349377;26;20064;-96
2023/10/19 01:57:34;;;;;;;1.20;1.15;;;;;;;11.31;59.81;99127.62;5332861;26;20629;-95
2023/10/19 02:00:00;;;;;;;0.40;0.40;;;;;;;11.50;59.82;99129.41;5331599;26;20056;-95
2023/10/19 02:02:25;;;;;;;2.28;1.48;;;;;;;11.27;59.81;99131.28;5331547;26;20100;-94
2023/10/19 02:04:53;;;;;;;2.45;2.00;;;;;;;11.40;59.82;99122.94;5331328;26;20325;-95
2023/10/19 02:07:18;;;;;;;1.45;1.35;;;;;;;11.33;59.82;99117.13;5331871;26;20017;-95
2023/10/19 02:09:43;;;;;;;2.15;2.03;;;;;;;11.19;59.81;99114.31;5330840;26;20099;-95
2023/10/19 02:12:09;;;;;;;0.82;0.82;;;;;;;11.20;59.81;99106.44;5331221;26;20109;-94
2023/10/19 02:14:34;;;;;;;3.55;1.10;;;;;;;11.25;59.80;99112.28;5331192;26;20183;-94
2023/10/19 02:17:01;;;;;;;2.62;1.05;;;;;;;11.21;59.80;99113.34;5338458;26;20324;-94
2023/10/19 02:19:27;;;;;;;0.55;0.55;;;;;;;11.10;59.80;99109.50;5313639;26;20067;-95
2023/10/19 02:21:54;;;;;;;1.37;1.27;;;;;;;10.90;59.79;99113.84;5312641;26;20685;-94
2023/10/19 02:24:19;;;;;;;5.37;1.50;;;;;;;10.98;59.79;99109.16;5311900;26;20066;-94
2023/10/19 02:26:46;;;;;;;0.98;0.90;;;;;;;10.93;59.79;99108.50;5330926;26;20048;-94
2023/10/19 02:29:12;;;;;;;2.90;2.70;;;;;;;10.98;59.79;99097.88;5312501;26;20048;-95
2023/10/19 02:31:38;;;;;;;6.30;2.95;;;;;;;10.98;59.79;99096.13;5330712;26;20064;-94
2023/10/19 02:34:04;;;;;;;0.93;0.60;;;;;;;11.04;59.79;99095.00;5330355;26;20062;-94
2023/10/19 02:36:30;;;;;;;1.90;1.25;;;;;;;11.09;59.80;99082.62;5330740;26;20056;-94
2023/10/19 02:39:07;;;;;;;2.50;1.10;;;;;;;11.15;59.81;99082.38;5312321;26;20024;-94
2023/10/19 02:41:35;;;;;;;1.45;1.30;;;;;;;11.15;59.81;99071.94;5313542;26;20064;-94
2023/10/19 02:44:23;;;;;;;3.75;2.17;;;;;;;10.91;59.78;99071.28;5312382;26;20143;-93
2023/10/19 02:46:52;;;;;;;3.47;2.35;;;;;;;10.94;59.79;99070.28;5337050;26;20068;-94
2023/10/19 02:49:18;;;;;;;2.37;1.67;;;;;;;11.00;59.80;99065.66;5312452;26;20115;-93
2023/10/19 02:51:47;;;;;;;2.30;1.67;;;;;;;10.98;59.79;99059.66;5312523;26;20070;-94
2023/10/19 02:54:25;;;;;;;1.30;1.20;;;;;;;11.05;59.79;99055.87;5313350;26;20085;-93
2023/10/19 02:56:56;;;;;;;2.03;0.82;;;;;;;11.16;59.80;99062.38;5315986;26;20056;-93
2023/10/19 02:59:22;;;;;;;0.30;0.30;;;;;;;11.05;59.79;99053.25;5313684;26;20068;-94
2023/10/19 03:01:52;;;;;;;0.82;0.45;;;;;;;10.97;59.78;99055.37;5312738;26;20089;-93
2023/10/19 03:04:18;;;;;;;1.75;1.65;;;;;;;11.04;59.79;99045.53;5312565;26;20056;-94
2023/10/19 03:06:43;;;;;;;6.53;2.60;;;;;;;11.13;59.80;99045.12;5333338;26;20099;-95
2023/10/19 03:11:54;;;;;;;2.53;1.48;;;;;;;11.09;59.80;99030.53;5337033;26;20078;-93
2023/10/19 03:14:19;;;;;;;2.87;1.62;;;;;;;11.00;59.79;99038.75;5331040;26;20048;-94
2023/10/19 03:16:45;;;;;;;2.50;2.28;;;;;;;11.02;59.79;99029.12;5330941;26;20048;-94
2023/10/19 03:19:12;;;;;;;1.85;1.50;;;;;;;11.02;59.79;99016.94;5336815;26;20076;-94
2023/10/19 03:21:44;;;;;;;0.68;0.68;;;;;;;11.07;59.80;99012.38;5331383;26;20705;-94
2023/10/19 03:24:14;;;;;;;1.80;1.67;;;;;;;11.03;59.80;99004.75;5331653;26;20066;-93
2023/10/19 03:26:48;;;;;;;;;;;;;;;10.84;59.79;99009.09;5313713;26;20124;-93
2023/10/19 03:29:15;;;;;;;1.55;1.17;;;;;;;11.10;59.80;99006.16;5350538;26;19972;-93
2023/10/19 03:31:43;;;;;;;6.57;1.98;;;;;;;10.99;59.79;99000.63;5330817;26;20112;-92
2023/10/19 03:34:10;;;;;;;0.62;0.62;;;;;;;10.87;59.78;98994.19;5330764;26;20127;-93
2023/10/19 03:36:36;;;;;;;1.40;1.27;;;;;;;10.96;59.79;98992.94;5312122;26;20072;-93
2023/10/19 03:39:13;;;;;;;1.73;1.62;;;;;;;10.95;59.79;98986.91;5330405;26;20062;-92
2023/10/19 03:41:41;;;;;;;4.00;2.55;;;;;;;10.95;59.79;98984.28;5350845;26;20101;-95
2023/10/19 03:44:13;;;;;;;1.62;1.52;;;;;;;10.88;59.78;98990.66;5312712;26;20063;-94
2023/10/19 03:46:45;;;;;;;5.47;1.42;;;;;;;10.88;59.78;98988.06;5331151;26;20048;-92
2023/10/19 03:49:13;;;;;;;1.58;1.15;;;;;;;10.91;59.78;98979.31;5331294;26;20125;-92
2023/10/19 03:51:58;;;;;;;2.78;2.58;;;;;;;10.88;59.78;98982.00;5330790;26;20091;-93
2023/10/19 03:54:27;;;;;;;3.05;2.85;;;;;;;10.89;59.79;98987.19;5333298;26;20073;-94
2023/10/19 03:56:52;;;;;;;3.47;2.35;;;;;;;10.82;59.78;98975.34;5312482;26;20052;-93
2023/10/19 03:59:18;;;;;;;0.55;0.55;;;;;;;10.84;59.77;98978.72;5330279;26;20068;-94
2023/10/19 04:01:43;;;;;;;0.98;0.98;;;;;;;10.96;59.79;98969.50;5330522;26;20084;-95
2023/10/19 04:04:13;;;;;;;7.78;2.28;;;;;;;11.01;59.79;98964.94;5330381;26;20103;-93
2023/10/19 04:06:40;;;;;;;1.62;1.15;;;;;;;10.91;59.78;98958.47;5331070;26;20100;-94
2023/10/19 04:09:05;;;;;;;4.00;2.05;;;;;;;10.76;59.78;98960.00;5330575;26;20072;-94
2023/10/19 04:11:48;;;;;;;4.15;1.90;;;;;;;10.87;59.78;98951.69;5330532;26;20121;-93
2023/10/19 04:14:17;;;;;;;2.90;2.67;;;;;;;10.76;59.77;98953.03;5316873;26;20052;-93
2023/10/19 04:16:48;;;;;;;1.35;1.25;;;;;;;10.78;59.78;98934.75;5330400;26;20109;-95
2023/10/19 04:19:14;;;;;;;0.68;0.68;;;;;;;10.79;59.78;98939.03;5332236;26;20121;-94
2023/10/19 04:21:43;;;;;;;3.15;2.85;;;;;;;10.84;59.79;98928.41;5337794;26;20417;-95
2023/10/19 04:24:09;;;;;;;1.43;1.33;;;;;;;10.84;59.77;98931.00;5331514;26;20065;-95
2023/10/19 04:26:37;;;;;;;2.70;2.42;;;;;;;10.70;59.78;98921.25;5330249;26;20144;-94
2023/10/19 04:31:59;;;;;;;1.00;1.00;;;;;;;10.76;59.77;98911.37;5341146;26;20068;-93
2023/10/19 04:34:25;;;;;;;1.20;0.93;;;;;;;10.70;59.78;98903.87;5330180;26;20868;-95
2023/10/19 04:36:50;;;;;;;0.88;0.88;;;;;;;10.76;59.77;98916.59;5330812;26;20078;-93
2023/10/19 04:39:19;;;;;;;3.65;2.78;;;;;;;10.83;59.78;98911.09;5315887;26;20063;-94
2023/10/19 04:41:45;;;;;;;3.03;1.77;;;;;;;10.80;59.78;98903.44;5332475;26;20135;-94
2023/10/19 04:44:10;;;;;;;2.78;1.55;;;;;;;10.72;59.77;98909.00;5330308;26;20105;-92
2023/10/19 04:46:36;;;;;;;2.83;1.30;;;;;;;10.83;59.78;98906.72;5330907;26;20052;-94
2023/10/19 04:49:02;;;;;;;1.55;1.45;;;;;;;10.66;59.77;98906.69;5331302;26;20060;-93
2023/10/19 04:51:28;;;;;;;2.87;2.25;;;;;;;10.77;59.78;98892.25;5331505;26;20638;-94
2023/10/19 04:53:55;;;;;;;1.87;1.20;;;;;;;10.79;59.78;98896.53;5313502;26;20070;-94
2023/10/19 04:56:20;;;;;;;1.27;1.23;;;;;;;10.67;59.77;98892.75;5331394;26;20052;-94
2023/10/19 04:58:47;;;;;;;1.85;1.23;;;;;;;10.67;59.77;98896.22;5330866;26;20133;-93
2023/10/19 05:01:12;;;;;;;0.43;0.43;;;;;;;10.63;59.77;98901.59;5330725;26;20147;-93
2023/10/19 05:03:38;;;;;;;2.58;2.35;;;;;;;10.75;59.77;98901.06;5330816;26;20073;-93
2023/10/19 05:06:03;;;;;;;1.17;1.08;;;;;;;10.73;59.77;98893.31;5331039;26;20107;-93
2023/10/19 05:08:29;;;;;;;2.30;2.20;;;;;;;10.85;59.77;98891.03;5330548;26;20112;-95
2023/10/19 05:10:55;;;;;;;0.85;0.85;;;;;;;10.82;59.78;98886.81;5331222;26;20070;-93
2023/10/19 05:13:25;;;;;;;1.27;1.17;;;;;;;10.64;59.77;98882.47;5330730;26;20126;-93
2023/10/19 05:15:51;;;;;;;1.92;1.83;;;;;;;10.64;59.77;98885.06;5331284;26;20051;-94
2023/10/19 05:18:16;;;;;;;1.65;1.40;;;;;;;10.75;59.77;98893.25;5331091;26;20374;-93
2023/10/19 05:20:41;;;;;;;3.12;2.62;;;;;;;10.82;59.78;98888.59;5330757;26;20111;-93
2023/10/19 05:23:08;;;;;;;4.20;1.55;;;;;;;10.73;59.77;98895.91;5332060;26;20056;-93
2023/10/19 05:25:36;;;;;;;0.82;0.77;;;;;;;10.75;59.77;98896.69;5312888;26;20048;-93
2023/10/19 05:28:04;;;;;;;2.85;1.75;;;;;;;10.76;59.77;98897.53;5331587;26;20697;-94
2023/10/19 05:30:29;;;;;;;1.02;1.02;;;;;;;10.85;59.77;98888.44;5312952;26;20101;-92
2023/10/19 05:32:55;;;;;;;5.60;3.53;;;;;;;10.75;59.77;98888.03;5330841;26;20422;-94
2023/10/19 05:35:26;;;;;;;3.70;3.20;;;;;;;10.83;59.78;98890.28;5330997;26;20048;-92
2023/10/19 05:37:56;;;;;;;1.48;1.37;;;;;;;10.86;59.78;98890.13;5350813;26;20072;-95
2023/10/19 05:40:23;;;;;;;8.85;3.00;;;;;;;10.74;59.77;98891.56;5350855;26;20063;-93
2023/10/19 05:42:49;;;;;;;4.85;2.70;;;;;;;10.88;59.78;98888.28;5313023;26;20080;-95
2023/10/19 05:45:16;;;;;;;3.70;3.12;;;;;;;11.00;59.79;98892.94;5330796;26;20056;-93
2023/10/19 05:47:43;;;;;;;2.33;1.50;;;;;;;10.86;59.78;98884.91;5330463;26;20083;-93
2023/10/19 05:50:09;;;;;;;1.37;1.23;;;;;;;10.90;59.78;98883.88;5313250;26;20416;-92
2023/10/19 05:52:35;;;;;;;2.83;2.62;;;;;;;10.79;59.78;98880.94;5312988;26;20052;-93
2023/10/19 05:55:00;;;;;;;2.62;2.33;;;;;;;10.88;59.78;98875.28;5331032;26;20100;-94
2023/10/19 05:57:25;;;;;;;0.65;0.65;;;;;;;10.99;59.79;98875.63;5330875;26;20194;-93
2023/10/19 05:59:51;;;;;;;2.45;2.10;;;;;;;10.99;59.79;98886.88;5330715;26;20115;-93
2023/10/19 06:02:17;;;;;;;2.85;2.65;;;;;;;11.00;59.79;98887.72;5324227;26;116682;-94
2023/10/19 06:04:43;;;;;;;2.45;1.35;;;;;;;11.05;59.79;98888.34;5349720;26;20048;-93
2023/10/19 06:07:08;;;;;;;2.83;2.47;;;;;;;10.96;59.79;98875.78;5330334;26;25149;-93
2023/10/19 06:09:35;;;;;;;0.93;0.93;;;;;;;10.89;59.78;98892.62;5332794;26;20100;-93
2023/10/19 06:12:01;;;;;;;6.20;2.67;;;;;;;11.05;59.79;98885.75;5314614;26;20059;-93
2023/10/19 06:14:30;;;;;;;2.72;1.95;;;;;;;11.12;59.79;98876.75;5312404;26;20048;-93
2023/10/19 06:16:56;;;;;;;1.85;1.73;;;;;;;11.12;59.79;98874.13;5312543;26;20068;-94
2023/10/19 06:19:22;;;;;;;0.80;0.80;;;;;;;11.16;59.80;98873.06;5330147;26;20078;-93
2023/10/19 06:21:47;;;;;;;2.53;2.33;;;;;;;11.15;59.79;98867.94;5331417;26;20075;-93
2023/10/19 06:24:14;;;;;;;6.03;1.35;;;;;;;11.08;59.80;98877.78;5331089;26;20087;-94
2023/10/19 06:26:42;;;;;;;0.73;0.73;;;;;;;11.05;59.79;98860.53;5330131;26;20434;-94
2023/10/19 06:29:07;;;;;;;1.70;1.42;;;;;;;11.18;59.79;98855.59;5311904;26;20055;-93
2023/10/19 06:31:33;;;;;;;5.93;1.80;;;;;;;11.22;59.80;98858.91;5329854;26;20104;-93
2023/10/19 06:33:58;;;;;;;1.52;1.42;;;;;;;11.12;59.79;98852.44;5329819;26;20089;-93
2023/10/19 06:36:24;;;;;;;5.32;3.58;;;;;;;11.33;59.81;98851.38;5329727;26;20105;-94
2023/10/19 06:38:50;;;;;;;1.30;1.20;;;;;;;11.38;59.81;98844.22;5329904;26;20074;-93
2023/10/19 06:41:18;;;;;;;1.45;1.37;;;;;;;11.26;59.80;98858.66;5330211;26;20080;-94
2023/10/19 06:43:43;;;;;;;2.37;1.77;;;;;;;11.21;59.79;98860.66;5329918;26;20065;-93
2023/10/19 06:46:11;;;;;;;1.95;1.85;;;;;;;11.16;59.80;98849.63;5329727;26;20373;-93
2023/10/19 06:48:37;;;;;;;1.33;1.23;;;;;;;11.16;59.80;98844.41;5330223;26;20067;-93
2023/10/19 06:51:02;;;;;;;0.85;0.85;;;;;;;11.20;59.80;98839.91;5329959;26;20364;-94
2023/10/19 06:53:28;;;;;;;11.05;1.85;;;;;;;11.29;59.80;98855.06;5329852;26;20064;-94
2023/10/19 06:55:54;;;;;;;0.52;0.52;;;;;;;11.33;59.81;98852.22;5329804;26;20345;-92
2023/10/19 06:58:20;;;;;;;5.47;1.85;;;;;;;11.43;59.81;98851.78;5330034;26;20506;-93
2023/10/19 07:00:56;;;;;;;2.80;1.75;;;;;;;11.50;59.81;98845.34;5330054;26;20089;-94
2023/10/19 07:03:22;;;;;;;2.83;2.05;;;;;;;11.48;59.81;98849.78;5331006;26;20067;-93
2023/10/19 07:05:47;;;;;;;2.05;1.55;;;;;;;11.68;59.81;98839.22;5329776;26;20133;-94
2023/10/19 07:08:12;;;;;;;2.97;2.67;;;;;;;11.62;59.82;98845.59;5348291;26;20082;-93
2023/10/19 07:10:38;;;;;;;2.20;2.03;;;;;;;11.51;59.81;98837.44;5347822;26;20099;-93
2023/10/19 07:13:03;;;;;;;1.60;1.50;;;;;;;11.48;59.81;98835.00;5329833;26;20119;-93
2023/10/19 07:15:29;;;;;;;2.25;1.55;;;;;;;11.64;59.82;98822.88;5329785;26;20443;-93
2023/10/19 07:17:55;;;;;;;3.03;1.92;;;;;;;11.55;59.82;98825.09;5329905;26;20137;-94
2023/10/19 07:22:49;;;;;;;2.15;2.03;;;;;;;11.68;59.83;98823.56;5350365;26;20047;-92
2023/10/19 07:25:14;;;;;;;1.23;1.23;;;;;;;11.68;59.83;98824.41;5331458;26;20123;-93
2023/10/19 07:27:42;;;;;;;2.78;1.10;;;;;;;11.78;59.83;98824.78;5348365;26;20094;-93
2023/10/19 07:30:09;;;;;;;4.65;3.28;;;;;;;11.79;59.83;98818.66;5329862;26;20413;-94
2023/10/19 07:32:35;;;;;;;1.62;1.17;;;;;;;11.87;59.83;98821.72;5311573;26;20428;-93
2023/10/19 07:35:00;;;;;;;2.20;1.08;;;;;;;11.86;59.83;98807.00;5329775;26;20100;-93
2023/10/19 07:37:27;;;;;;;4.68;2.17;;;;;;;11.79;59.83;98810.00;5329586;26;20469;-93
2023/10/19 07:39:56;;;;;;;1.55;1.00;;;;;;;11.87;59.83;98810.47;5331401;26;20060;-93
2023/10/19 07:42:22;;;;;;;3.30;2.67;;;;;;;11.89;59.83;98796.41;5333560;26;20052;-94
2023/10/19 07:44:47;;;;;;;2.15;1.95;;;;;;;11.82;59.82;98797.63;5330027;26;20385;-94
2023/10/19 07:47:13;;;;;;;2.08;1.10;;;;;;;11.87;59.83;98800.88;5328890;26;20052;-94
2023/10/19 07:49:38;;;;;;;14.05;2.37;;;;;;;11.89;59.83;98788.59;5329492;26;20076;-93
2023/10/19 07:52:06;;;;;;;1.58;1.48;;;;;;;11.87;59.83;98774.78;5329276;26;20057;-94
2023/10/19 07:54:35;;;;;;;1.80;1.60;;;;;;;11.95;59.83;98779.59;5311512;26;20723;-93
2023/10/19 07:57:08;;;;;;;1.33;1.27;;;;;;;11.99;59.84;98783.72;5311371;26;20068;-92
2023/10/19 07:59:33;;;;;;;2.15;1.73;;;;;;;12.11;59.85;98777.03;5312848;26;20056;-93
2023/10/19 08:02:02;;;;;;;2.00;1.83;;;;;;;11.88;59.83;98763.44;5329345;26;20070;-93
2023/10/19 08:04:28;;;;;;;2.83;2.62;;;;;;;12.09;59.85;98771.06;5312108;26;20129;-95
2023/10/19 08:06:55;;;;;;;1.02;1.00;;;;;;;12.27;59.85;98762.22;5311345;26;20064;-93
2023/10/19 08:09:22;;;;;;;3.10;1.90;;;;;;;12.46;59.87;98762.03;5329576;26;20052;-93
2023/10/19 08:11:48;;;;;;;2.22;1.25;;;;;;;12.61;59.88;98766.41;5329876;26;20476;-93
2023/10/19 08:14:14;;;;;;;0.43;0.37;;;;;;;12.71;59.88;98764.13;5310942;26;20779;-93
2023/10/19 08:16:41;;;;;;;1.50;1.40;;;;;;;12.83;59.89;98764.28;5329308;26;20068;-93
2023/10/19 08:19:07;;;;;;;1.73;1.62;;;;;;;12.78;59.88;98763.72;5329561;26;20424;-93
2023/10/19 08:21:34;;;;;;;2.25;1.27;;;;;;;12.97;59.90;98757.41;5329757;26;20078;-93
2023/10/19 08:24:04;;;;;;;0.43;0.43;;;;;;;13.09;59.90;98757.56;5332831;26;20072;-93
2023/10/19 08:26:30;;;;;;;0.65;0.65;;;;;;;13.15;59.90;98759.81;5331117;26;20100;-93
2023/10/19 08:28:55;;;;;;;1.65;1.50;;;;;;;13.24;59.91;98753.22;5330223;26;20072;-93
2023/10/19 08:31:21;;;;;;;1.98;1.73;;;;;;;13.25;59.90;98749.72;5330204;26;20154;-94
2023/10/19 08:33:47;;;;;;;0.37;0.35;;;;;;;13.45;59.92;98732.81;5330449;26;20079;-93
2023/10/19 08:36:19;;;;;;;2.75;1.73;;;;;;;13.42;59.92;98733.84;5349236;26;20432;-93
2023/10/19 08:38:46;;;;;;;1.58;1.20;;;;;;;13.34;59.90;98737.88;5312621;26;20702;-95
2023/10/19 08:41:12;;;;;;;1.27;1.17;;;;;;;13.47;59.92;98730.97;5312033;26;20047;-94
2023/10/19 08:43:39;;;;;;;5.37;1.37;;;;;;;13.57;59.92;98737.34;5330297;26;20095;-93
2023/10/19 08:46:05;;;;;;;14.20;3.70;;;;;;;13.67;59.93;98727.16;5330821;26;20140;-93
2023/10/19 08:48:34;;;;;;;4.45;1.17;;;;;;;13.76;59.93;98714.38;5312056;26;20056;-93
2023/10/19 08:51:00;;;;;;;0.82;0.82;;;;;;;13.78;59.93;98715.09;5312331;26;20086;-93
2023/10/19 08:53:25;;;;;;;5.00;1.42;;;;;;;13.64;59.93;98711.66;5330332;26;20080;-94
2023/10/19 08:55:54;;;;;;;6.40;4.40;;;;;;;13.64;59.94;98707.25;5349091;26;20381;-94
2023/10/19 08:58:19;;;;;;;1.85;1.05;;;;;;;13.64;59.92;98699.41;5330900;26;20056;-93
2023/10/19 09:00:51;;;;;;;1.70;1.60;;;;;;;13.61;59.93;98697.00;5330416;26;20419;-92
2023/10/19 09:03:16;;;;;;;1.48;1.15;;;;;;;13.76;59.94;98698.69;5312548;26;20068;-93
2023/10/19 09:05:42;;;;;;;2.83;2.08;;;;;;;13.95;59.94;98706.19;5330299;26;20068;-93
2023/10/19 09:08:09;;;;;;;5.07;2.87;;;;;;;14.13;59.96;98702.44;5312624;26;20436;-95
2023/10/19 09:10:36;;;;;;;0.47;0.45;;;;;;;14.29;59.97;98701.47;5330316;26;20107;-94
2023/10/19 09:13:12;;;;;;;2.33;2.12;;;;;;;14.17;59.95;98697.84;5330152;26;20060;-93
2023/10/19 09:15:38;;;;;;;1.80;1.70;;;;;;;14.34;59.97;98702.84;5331028;26;20492;-93
2023/10/19 09:18:17;;;;;;;2.47;2.28;;;;;;;14.46;59.97;98692.59;5311984;26;20070;-94
2023/10/19 09:20:52;;;;;;;2.60;1.73;;;;;;;14.47;59.97;98691.63;5330854;26;20410;-94
2023/10/19 09:23:29;;;;;;;0.70;0.43;;;;;;;14.57;59.98;98695.31;5315867;26;20653;-92
2023/10/19 09:25:56;;;;;;;0.75;0.75;;;;;;;14.65;59.98;98693.03;5334420;26;20466;-93
2023/10/19 09:28:23;;;;;;;1.98;1.27;;;;;;;14.85;59.99;98697.81;5312054;26;20056;-94
2023/10/19 09:30:49;;;;;;;1.98;1.87;;;;;;;14.98;60.00;98688.22;5330326;26;20063;-94
2023/10/19 09:33:17;;;;;;;0.70;0.70;;;;;;;15.04;60.00;98682.56;5330124;26;20068;-93
2023/10/19 09:35:43;;;;;;;2.90;2.22;;;;;;;15.14;60.01;98692.41;5330380;26;20102;-93
2023/10/19 09:38:09;;;;;;;3.00;1.00;;;;;;;15.16;60.00;98687.91;5330200;26;20060;-93
2023/10/19 09:40:34;;;;;;;2.50;1.95;;;;;;;15.22;60.02;98684.88;5311763;26;20057;-93
2023/10/19 09:43:07;;;;;;;0.68;0.68;;;;;;;15.04;60.00;98676.47;5329948;26;20095;-93
2023/10/19 09:45:32;;;;;;;2.15;1.42;;;;;;;15.12;60.01;98673.31;5312785;26;20085;-93
2023/10/19 09:47:57;;;;;;;4.12;2.85;;;;;;;15.13;60.01;98669.75;5329984;26;20064;-93
2023/10/19 09:50:23;;;;;;;0.98;0.75;;;;;;;15.17;60.02;98666.00;5348223;26;20099;-93
2023/10/19 09:52:48;;;;;;;2.12;2.03;;;;;;;15.30;60.02;98657.19;5348554;26;20095;-94
2023/10/19 09:55:28;;;;;;;0.50;0.50;;;;;;;15.19;60.01;98664.97;5329621;26;20056;-93
2023/10/19 09:57:56;;;;;;;1.40;1.12;;;;;;;15.17;60.02;98652.91;5312444;26;20704;-93
2023/10/19 10:00:25;;;;;;;2.35;1.27;;;;;;;15.31;60.02;98634.44;5311888;26;20479;-94
2023/10/19 10:02:51;;;;;;;2.85;1.95;;;;;;;15.29;60.02;98636.31;5330270;26;20083;-93
2023/10/19 10:05:38;;;;;;;1.67;1.45;;;;;;;15.29;60.02;98631.06;5311821;26;20072;-93
2023/10/19 10:08:18;;;;;;;1.05;1.05;;;;;;;15.36;60.02;98629.69;5348645;26;20056;-94
2023/10/19 10:10:44;;;;;;;3.67;2.03;;;;;;;15.36;60.02;98621.81;5348473;26;20048;-92
2023/10/19 10:13:30;;;;;;;0.62;0.40;;;;;;;15.25;60.02;98613.87;5330187;26;20106;-93
2023/10/19 10:15:57;;;;;;;1.20;1.17;;;;;;;15.23;60.01;98611.38;5348359;26;20063;-94
2023/10/19 10:18:26;;;;;;;0.90;0.88;;;;;;;15.14;60.01;98605.91;5330104;26;20070;-94
2023/10/19 10:21:15;;;;;;;2.10;1.92;;;;;;;15.40;60.03;98607.59;5311452;26;20071;-94
2023/10/19 10:24:00;;;;;;;2.67;1.80;;;;;;;15.52;60.03;98590.97;5332718;26;20042;-93
2023/10/19 10:26:35;;;;;;;4.72;2.97;;;;;;;15.51;60.03;98591.91;5314679;26;20072;-94
2023/10/19 10:29:26;;;;;;;1.77;1.17;;;;;;;15.60;60.04;98585.22;5312853;26;20059;-94
2023/10/19 10:31:52;;;;;;;3.15;1.90;;;;;;;15.71;60.04;98595.78;5330443;26;20085;-94
2023/10/19 10:34:33;;;;;;;4.80;2.30;;;;;;;15.74;60.04;98594.72;5329754;26;20076;-93
2023/10/19 10:37:02;;;;;;;0.93;0.93;;;;;;;15.96;60.06;98573.88;5348743;26;20063;-95
2023/10/19 10:39:27;;;;;;;1.02;0.90;;;;;;;16.14;60.06;98571.69;5312505;26;20057;-95
2023/10/19 10:42:01;;;;;;;6.68;1.25;;;;;;;16.25;60.07;98572.56;5329694;26;20060;-94
2023/10/19 10:44:46;;;;;;;2.55;0.95;;;;;;;16.28;60.07;98564.47;5329383;26;20072;-94
2023/10/19 10:47:16;;;;;;;2.47;2.30;;;;;;;16.37;60.07;98549.81;5312473;26;20716;-95
2023/10/19 10:49:51;;;;;;;1.20;1.10;;;;;;;16.43;60.08;98553.78;5312627;26;20066;-93
2023/10/19 10:52:28;;;;;;;1.35;1.25;;;;;;;16.35;60.07;98548.28;5329681;26;20070;-94
2023/10/19 10:54:55;;;;;;;3.20;1.62;;;;;;;16.43;60.08;98552.00;5330578;26;20084;-93
2023/10/19 10:57:20;;;;;;;5.45;1.73;;;;;;;16.48;60.08;98551.63;5330010;26;20088;-92
2023/10/19 10:59:46;;;;;;;2.35;2.22;;;;;;;16.59;60.09;98535.91;5348390;26;20078;-94
2023/10/19 11:02:21;;;;;;;1.00;0.98;;;;;;;16.62;60.08;98527.81;5330069;26;20048;-94
2023/10/19 11:04:47;;;;;;;1.30;1.23;;;;;;;16.80;60.09;98538.75;5330117;26;20103;-94
2023/10/19 11:07:19;;;;;;;2.37;2.10;;;;;;;16.94;60.11;98535.88;5329920;26;20111;-94
2023/10/19 11:09:45;;;;;;;1.77;1.67;;;;;;;17.01;60.11;98536.22;5311932;26;20064;-94
2023/10/19 11:12:12;;;;;;;1.42;1.27;;;;;;;17.17;60.13;98527.03;5311496;26;20051;-94
2023/10/19 11:14:50;;;;;;;3.72;2.15;;;;;;;17.34;60.13;98522.25;5311652;26;20064;-94
2023/10/19 11:17:16;;;;;;;6.32;1.37;;;;;;;17.42;60.14;98517.19;5333912;26;20064;-94
2023/10/19 11:19:45;;;;;;;1.42;1.33;;;;;;;17.73;60.15;98507.69;5330817;26;20433;-95
2023/10/19 11:22:11;;;;;;;3.97;0.95;;;;;;;17.85;60.16;98504.09;5331705;26;20127;-94
2023/10/19 11:24:39;;;;;;;1.55;1.17;;;;;;;17.78;60.14;98505.56;5332135;26;20028;-93
2023/10/19 11:27:07;;;;;;;1.73;0.93;;;;;;;17.87;60.16;98502.16;5334399;26;20111;-94
2023/10/19 11:29:33;;;;;;;1.00;0.80;;;;;;;17.82;60.15;98503.50;5312504;26;20115;-95
2023/10/19 11:31:59;;;;;;;1.35;1.10;;;;;;;17.85;60.16;98501.47;5332185;26;20043;-94
2023/10/19 11:34:25;;;;;;;1.85;1.75;;;;;;;17.81;60.15;98492.16;5312473;26;20064;-95
2023/10/19 11:36:56;;;;;;;2.17;1.70;;;;;;;17.92;60.17;98484.19;5330967;26;20454;-94
2023/10/19 11:39:23;;;;;;;2.12;1.23;;;;;;;18.00;60.16;98473.03;5331179;26;20056;-94
2023/10/19 11:41:49;;;;;;;0.85;0.70;;;;;;;17.98;60.16;98472.31;5312663;26;20424;-95
2023/10/19 11:44:15;;;;;;;0.82;0.82;;;;;;;18.01;60.16;98474.72;5313701;26;20065;-95
2023/10/19 11:46:40;;;;;;;0.85;0.85;;;;;;;17.79;60.16;98462.47;5331290;26;20064;-95
2023/10/19 11:49:06;;;;;;;2.55;0.77;;;;;;;17.63;60.15;98472.53;5330313;26;20056;-94
2023/10/19 11:51:31;;;;;;;3.03;1.35;;;;;;;17.58;60.14;98482.63;5329712;26;20424;-95
2023/10/19 11:53:57;;;;;;;2.65;2.40;;;;;;;17.72;60.15;98475.28;5329850;26;20064;-94
2023/10/19 11:56:25;;;;;;;3.28;1.90;;;;;;;17.79;60.16;98480.91;5331394;26;20076;-96
2023/10/19 11:58:50;;;;;;;2.05;1.65;;;;;;;17.89;60.16;98476.53;5331412;26;20060;-93